sensor_id;sensor_type;location;lat;lon;timestamp;P1;durP1;ratioP1;P2;durP2;ratioP2
52272;SDS011;38227;50.942;4.016;2023-04-23T00:00:08;18.98;;;9.82;;
52272;SDS011;38227;50.942;4.016;2023-04-23T00:02:42;17.98;;;10.23;;
52272;SDS011;38227;50.942;4.016;2023-04-23T00:05:15;18.70;;;10.52;;
52272;SDS011;38227;50.942;4.016;2023-04-23T00:07:45;21.00;;;10.77;;
52272;SDS011;38227;50.942;4.016;2023-04-23T00:10:14;19.73;;;11.18;;
52272;SDS011;38227;50.942;4.016;2023-04-23T00:12:42;22.52;;;10.38;;
52272;SDS011;38227;50.942;4.016;2023-04-23T00:15:12;17.85;;;10.18;;
52272;SDS011;38227;50.942;4.016;2023-04-23T00:17:43;19.65;;;11.18;;
52272;SDS011;38227;50.942;4.016;2023-04-23T00:20:20;20.73;;;11.60;;
52272;SDS011;38227;50.942;4.016;2023-04-23T00:22:49;21.85;;;11.23;;
52272;SDS011;38227;50.942;4.016;2023-04-23T00:25:20;19.37;;;11.18;;
52272;SDS011;38227;50.942;4.016;2023-04-23T00:27:48;18.65;;;10.93;;
52272;SDS011;38227;50.942;4.016;2023-04-23T00:30:18;19.98;;;10.80;;
52272;SDS011;38227;50.942;4.016;2023-04-23T00:32:56;19.67;;;11.20;;
52272;SDS011;38227;50.942;4.016;2023-04-23T00:35:27;20.25;;;10.73;;
52272;SDS011;38227;50.942;4.016;2023-04-23T00:37:56;18.98;;;11.05;;
52272;SDS011;38227;50.942;4.016;2023-04-23T00:40:27;20.80;;;11.00;;
52272;SDS011;38227;50.942;4.016;2023-04-23T00:42:55;19.08;;;10.55;;
52272;SDS011;38227;50.942;4.016;2023-04-23T00:45:25;19.95;;;11.18;;
52272;SDS011;38227;50.942;4.016;2023-04-23T00:47:56;18.25;;;10.70;;
52272;SDS011;38227;50.942;4.016;2023-04-23T00:50:25;19.87;;;10.20;;
52272;SDS011;38227;50.942;4.016;2023-04-23T00:52:56;17.50;;;9.95;;
52272;SDS011;38227;50.942;4.016;2023-04-23T00:55:25;18.92;;;10.50;;
52272;SDS011;38227;50.942;4.016;2023-04-23T00:57:57;17.30;;;10.20;;
52272;SDS011;38227;50.942;4.016;2023-04-23T01:00:26;17.73;;;9.85;;
52272;SDS011;38227;50.942;4.016;2023-04-23T01:03:05;16.10;;;9.45;;
52272;SDS011;38227;50.942;4.016;2023-04-23T01:05:35;16.83;;;9.93;;
52272;SDS011;38227;50.942;4.016;2023-04-23T01:08:13;16.50;;;9.45;;
52272;SDS011;38227;50.942;4.016;2023-04-23T01:10:45;18.65;;;9.85;;
52272;SDS011;38227;50.942;4.016;2023-04-23T01:13:16;17.55;;;10.40;;
52272;SDS011;38227;50.942;4.016;2023-04-23T01:15:53;15.30;;;9.40;;
52272;SDS011;38227;50.942;4.016;2023-04-23T01:18:23;17.30;;;10.02;;
52272;SDS011;38227;50.942;4.016;2023-04-23T01:20:56;16.23;;;9.10;;
52272;SDS011;38227;50.942;4.016;2023-04-23T01:23:33;15.55;;;9.35;;
52272;SDS011;38227;50.942;4.016;2023-04-23T01:26:02;16.30;;;9.15;;
52272;SDS011;38227;50.942;4.016;2023-04-23T01:28:34;14.75;;;9.30;;
52272;SDS011;38227;50.942;4.016;2023-04-23T01:31:04;15.98;;;8.80;;
52272;SDS011;38227;50.942;4.016;2023-04-23T01:33:35;13.48;;;8.77;;
52272;SDS011;38227;50.942;4.016;2023-04-23T01:36:03;14.20;;;8.80;;
52272;SDS011;38227;50.942;4.016;2023-04-23T01:38:32;15.05;;;8.95;;
52272;SDS011;38227;50.942;4.016;2023-04-23T01:41:01;16.25;;;8.73;;
52272;SDS011;38227;50.942;4.016;2023-04-23T01:43:30;16.48;;;9.05;;
52272;SDS011;38227;50.942;4.016;2023-04-23T01:45:59;14.05;;;8.80;;
52272;SDS011;38227;50.942;4.016;2023-04-23T01:48:31;16.92;;;9.15;;
52272;SDS011;38227;50.942;4.016;2023-04-23T01:51:00;15.10;;;8.70;;
52272;SDS011;38227;50.942;4.016;2023-04-23T01:53:33;14.80;;;8.75;;
52272;SDS011;38227;50.942;4.016;2023-04-23T01:56:05;15.23;;;8.63;;
52272;SDS011;38227;50.942;4.016;2023-04-23T01:58:37;15.65;;;8.70;;
52272;SDS011;38227;50.942;4.016;2023-04-23T02:01:08;15.98;;;8.40;;
52272;SDS011;38227;50.942;4.016;2023-04-23T02:03:37;13.65;;;8.27;;
52272;SDS011;38227;50.942;4.016;2023-04-23T02:06:08;16.42;;;9.15;;
52272;SDS011;38227;50.942;4.016;2023-04-23T02:08:38;14.85;;;9.18;;
52272;SDS011;38227;50.942;4.016;2023-04-23T02:11:06;16.15;;;9.15;;
52272;SDS011;38227;50.942;4.016;2023-04-23T02:13:44;14.07;;;8.45;;
52272;SDS011;38227;50.942;4.016;2023-04-23T02:16:23;15.00;;;9.18;;
52272;SDS011;38227;50.942;4.016;2023-04-23T02:18:54;14.18;;;8.50;;
52272;SDS011;38227;50.942;4.016;2023-04-23T02:21:32;15.20;;;8.20;;
52272;SDS011;38227;50.942;4.016;2023-04-23T02:24:09;15.23;;;8.80;;
52272;SDS011;38227;50.942;4.016;2023-04-23T02:26:40;15.88;;;9.00;;
52272;SDS011;38227;50.942;4.016;2023-04-23T02:29:08;15.93;;;9.10;;
52272;SDS011;38227;50.942;4.016;2023-04-23T02:31:39;16.55;;;9.05;;
52272;SDS011;38227;50.942;4.016;2023-04-23T02:34:11;14.87;;;8.65;;
52272;SDS011;38227;50.942;4.016;2023-04-23T02:36:47;16.25;;;8.93;;
52272;SDS011;38227;50.942;4.016;2023-04-23T02:39:16;15.48;;;9.05;;
52272;SDS011;38227;50.942;4.016;2023-04-23T02:41:53;15.25;;;9.07;;
52272;SDS011;38227;50.942;4.016;2023-04-23T02:44:24;15.30;;;8.73;;
52272;SDS011;38227;50.942;4.016;2023-04-23T02:46:51;15.73;;;8.98;;
52272;SDS011;38227;50.942;4.016;2023-04-23T02:49:21;15.02;;;8.15;;
52272;SDS011;38227;50.942;4.016;2023-04-23T02:51:57;15.77;;;8.45;;
52272;SDS011;38227;50.942;4.016;2023-04-23T02:54:27;15.95;;;8.63;;
52272;SDS011;38227;50.942;4.016;2023-04-23T02:56:58;13.80;;;8.43;;
52272;SDS011;38227;50.942;4.016;2023-04-23T02:59:27;15.55;;;8.48;;
52272;SDS011;38227;50.942;4.016;2023-04-23T03:01:58;13.68;;;7.95;;
52272;SDS011;38227;50.942;4.016;2023-04-23T03:04:27;14.90;;;8.43;;
52272;SDS011;38227;50.942;4.016;2023-04-23T03:07:04;12.23;;;7.53;;
52272;SDS011;38227;50.942;4.016;2023-04-23T03:09:33;14.95;;;8.00;;
52272;SDS011;38227;50.942;4.016;2023-04-23T03:12:04;13.00;;;7.90;;
52272;SDS011;38227;50.942;4.016;2023-04-23T03:14:34;12.50;;;7.68;;
52272;SDS011;38227;50.942;4.016;2023-04-23T03:17:11;13.55;;;7.75;;
52272;SDS011;38227;50.942;4.016;2023-04-23T03:19:39;13.35;;;7.53;;
52272;SDS011;38227;50.942;4.016;2023-04-23T03:22:08;13.88;;;7.70;;
52272;SDS011;38227;50.942;4.016;2023-04-23T03:24:39;12.18;;;7.65;;
52272;SDS011;38227;50.942;4.016;2023-04-23T03:27:07;12.65;;;7.28;;
52272;SDS011;38227;50.942;4.016;2023-04-23T03:29:35;13.90;;;7.95;;
52272;SDS011;38227;50.942;4.016;2023-04-23T03:32:03;14.23;;;7.45;;
52272;SDS011;38227;50.942;4.016;2023-04-23T03:34:34;14.87;;;7.55;;
52272;SDS011;38227;50.942;4.016;2023-04-23T03:37:05;14.70;;;7.40;;
52272;SDS011;38227;50.942;4.016;2023-04-23T03:39:34;11.45;;;6.90;;
52272;SDS011;38227;50.942;4.016;2023-04-23T03:42:04;10.23;;;6.57;;
52272;SDS011;38227;50.942;4.016;2023-04-23T03:44:34;12.63;;;7.35;;
52272;SDS011;38227;50.942;4.016;2023-04-23T03:47:05;12.10;;;6.78;;
52272;SDS011;38227;50.942;4.016;2023-04-23T03:49:38;13.20;;;6.97;;
52272;SDS011;38227;50.942;4.016;2023-04-23T03:52:08;11.20;;;6.95;;
52272;SDS011;38227;50.942;4.016;2023-04-23T03:54:37;11.45;;;6.78;;
52272;SDS011;38227;50.942;4.016;2023-04-23T03:57:09;10.52;;;6.50;;
52272;SDS011;38227;50.942;4.016;2023-04-23T03:59:40;13.15;;;6.97;;
52272;SDS011;38227;50.942;4.016;2023-04-23T04:02:10;10.82;;;7.32;;
52272;SDS011;38227;50.942;4.016;2023-04-23T04:04:40;10.88;;;6.70;;
52272;SDS011;38227;50.942;4.016;2023-04-23T04:07:13;11.02;;;6.50;;
52272;SDS011;38227;50.942;4.016;2023-04-23T04:09:42;10.82;;;6.60;;
52272;SDS011;38227;50.942;4.016;2023-04-23T04:12:13;11.38;;;6.43;;
52272;SDS011;38227;50.942;4.016;2023-04-23T04:14:43;11.68;;;7.35;;
52272;SDS011;38227;50.942;4.016;2023-04-23T04:17:13;11.12;;;6.62;;
52272;SDS011;38227;50.942;4.016;2023-04-23T04:19:42;11.73;;;6.60;;
52272;SDS011;38227;50.942;4.016;2023-04-23T04:22:13;11.85;;;6.87;;
52272;SDS011;38227;50.942;4.016;2023-04-23T04:24:42;10.63;;;6.68;;
52272;SDS011;38227;50.942;4.016;2023-04-23T04:27:16;13.40;;;7.07;;
52272;SDS011;38227;50.942;4.016;2023-04-23T04:29:44;9.55;;;5.85;;
52272;SDS011;38227;50.942;4.016;2023-04-23T04:32:15;10.23;;;5.95;;
52272;SDS011;38227;50.942;4.016;2023-04-23T04:34:49;11.12;;;6.60;;
52272;SDS011;38227;50.942;4.016;2023-04-23T04:37:20;10.82;;;6.12;;
52272;SDS011;38227;50.942;4.016;2023-04-23T04:39:48;9.60;;;6.00;;
52272;SDS011;38227;50.942;4.016;2023-04-23T04:42:19;11.45;;;6.47;;
52272;SDS011;38227;50.942;4.016;2023-04-23T04:44:48;8.65;;;5.87;;
52272;SDS011;38227;50.942;4.016;2023-04-23T04:47:20;10.52;;;6.20;;
52272;SDS011;38227;50.942;4.016;2023-04-23T04:49:58;11.12;;;6.47;;
52272;SDS011;38227;50.942;4.016;2023-04-23T04:52:36;10.07;;;6.50;;
52272;SDS011;38227;50.942;4.016;2023-04-23T04:55:04;13.48;;;6.37;;
52272;SDS011;38227;50.942;4.016;2023-04-23T04:57:34;10.32;;;6.03;;
52272;SDS011;38227;50.942;4.016;2023-04-23T05:00:17;11.77;;;6.05;;
52272;SDS011;38227;50.942;4.016;2023-04-23T05:02:49;9.93;;;5.93;;
52272;SDS011;38227;50.942;4.016;2023-04-23T05:05:19;9.32;;;6.05;;
52272;SDS011;38227;50.942;4.016;2023-04-23T05:07:48;8.52;;;5.65;;
52272;SDS011;38227;50.942;4.016;2023-04-23T05:10:17;10.88;;;5.85;;
52272;SDS011;38227;50.942;4.016;2023-04-23T05:12:48;10.45;;;5.65;;
52272;SDS011;38227;50.942;4.016;2023-04-23T05:15:17;10.48;;;5.57;;
52272;SDS011;38227;50.942;4.016;2023-04-23T05:17:54;9.60;;;5.37;;
52272;SDS011;38227;50.942;4.016;2023-04-23T05:20:24;8.90;;;5.30;;
52272;SDS011;38227;50.942;4.016;2023-04-23T05:22:55;9.15;;;5.53;;
52272;SDS011;38227;50.942;4.016;2023-04-23T05:25:24;8.23;;;5.25;;
52272;SDS011;38227;50.942;4.016;2023-04-23T05:27:57;7.05;;;5.20;;
52272;SDS011;38227;50.942;4.016;2023-04-23T05:30:29;6.60;;;4.37;;
52272;SDS011;38227;50.942;4.016;2023-04-23T05:32:58;6.03;;;3.85;;
52272;SDS011;38227;50.942;4.016;2023-04-23T05:35:31;5.53;;;3.70;;
52272;SDS011;38227;50.942;4.016;2023-04-23T05:38:09;5.20;;;3.30;;
52272;SDS011;38227;50.942;4.016;2023-04-23T05:40:45;4.18;;;3.20;;
52272;SDS011;38227;50.942;4.016;2023-04-23T05:43:13;4.18;;;3.03;;
52272;SDS011;38227;50.942;4.016;2023-04-23T05:45:44;5.28;;;3.22;;
52272;SDS011;38227;50.942;4.016;2023-04-23T05:48:14;4.53;;;2.60;;
52272;SDS011;38227;50.942;4.016;2023-04-23T05:50:44;5.10;;;2.95;;
52272;SDS011;38227;50.942;4.016;2023-04-23T05:53:15;4.32;;;3.08;;
52272;SDS011;38227;50.942;4.016;2023-04-23T05:55:45;5.47;;;3.22;;
52272;SDS011;38227;50.942;4.016;2023-04-23T05:58:15;5.03;;;3.10;;
52272;SDS011;38227;50.942;4.016;2023-04-23T06:00:45;3.85;;;2.83;;
52272;SDS011;38227;50.942;4.016;2023-04-23T06:03:17;4.35;;;2.70;;
52272;SDS011;38227;50.942;4.016;2023-04-23T06:05:46;5.10;;;2.75;;
52272;SDS011;38227;50.942;4.016;2023-04-23T06:08:23;3.80;;;2.53;;
52272;SDS011;38227;50.942;4.016;2023-04-23T06:10:53;3.25;;;2.47;;
52272;SDS011;38227;50.942;4.016;2023-04-23T06:13:25;4.50;;;2.60;;
52272;SDS011;38227;50.942;4.016;2023-04-23T06:15:56;3.50;;;2.25;;
52272;SDS011;38227;50.942;4.016;2023-04-23T06:18:27;3.95;;;2.30;;
52272;SDS011;38227;50.942;4.016;2023-04-23T06:20:57;2.45;;;1.98;;
52272;SDS011;38227;50.942;4.016;2023-04-23T06:23:28;3.10;;;1.95;;
52272;SDS011;38227;50.942;4.016;2023-04-23T06:25:57;3.37;;;2.10;;
52272;SDS011;38227;50.942;4.016;2023-04-23T06:28:28;2.55;;;1.90;;
52272;SDS011;38227;50.942;4.016;2023-04-23T06:30:58;3.28;;;2.00;;
52272;SDS011;38227;50.942;4.016;2023-04-23T06:33:29;2.83;;;2.15;;
52272;SDS011;38227;50.942;4.016;2023-04-23T06:36:03;4.18;;;1.92;;
52272;SDS011;38227;50.942;4.016;2023-04-23T06:38:36;2.47;;;1.83;;
52272;SDS011;38227;50.942;4.016;2023-04-23T06:41:05;4.07;;;1.55;;
52272;SDS011;38227;50.942;4.016;2023-04-23T06:43:34;3.25;;;1.77;;
52272;SDS011;38227;50.942;4.016;2023-04-23T06:46:04;2.70;;;1.77;;
52272;SDS011;38227;50.942;4.016;2023-04-23T06:48:40;2.60;;;1.52;;
52272;SDS011;38227;50.942;4.016;2023-04-23T06:51:10;2.40;;;1.60;;
52272;SDS011;38227;50.942;4.016;2023-04-23T06:53:43;2.17;;;1.83;;
52272;SDS011;38227;50.942;4.016;2023-04-23T06:56:20;1.60;;;1.27;;
52272;SDS011;38227;50.942;4.016;2023-04-23T06:58:49;3.92;;;1.30;;
52272;SDS011;38227;50.942;4.016;2023-04-23T07:01:20;2.50;;;1.48;;
52272;SDS011;38227;50.942;4.016;2023-04-23T07:03:48;2.70;;;1.20;;
52272;SDS011;38227;50.942;4.016;2023-04-23T07:06:20;2.85;;;1.37;;
52272;SDS011;38227;50.942;4.016;2023-04-23T07:08:51;1.87;;;1.23;;
52272;SDS011;38227;50.942;4.016;2023-04-23T07:11:22;4.37;;;1.30;;
52272;SDS011;38227;50.942;4.016;2023-04-23T07:13:55;2.33;;;1.23;;
52272;SDS011;38227;50.942;4.016;2023-04-23T07:16:24;1.48;;;1.00;;
52272;SDS011;38227;50.942;4.016;2023-04-23T07:19:01;1.37;;;1.00;;
52272;SDS011;38227;50.942;4.016;2023-04-23T07:21:31;1.77;;;0.95;;
52272;SDS011;38227;50.942;4.016;2023-04-23T07:24:02;2.65;;;0.95;;
52272;SDS011;38227;50.942;4.016;2023-04-23T07:26:34;1.00;;;0.75;;
52272;SDS011;38227;50.942;4.016;2023-04-23T07:29:05;2.75;;;0.80;;
52272;SDS011;38227;50.942;4.016;2023-04-23T07:31:37;1.58;;;1.00;;
52272;SDS011;38227;50.942;4.016;2023-04-23T07:34:07;1.52;;;0.93;;
52272;SDS011;38227;50.942;4.016;2023-04-23T07:36:37;1.52;;;0.95;;
52272;SDS011;38227;50.942;4.016;2023-04-23T07:39:07;2.25;;;0.95;;
52272;SDS011;38227;50.942;4.016;2023-04-23T07:41:37;2.08;;;0.80;;
52272;SDS011;38227;50.942;4.016;2023-04-23T07:44:07;0.95;;;0.68;;
52272;SDS011;38227;50.942;4.016;2023-04-23T07:46:36;1.65;;;0.90;;
52272;SDS011;38227;50.942;4.016;2023-04-23T07:49:13;1.85;;;1.05;;
52272;SDS011;38227;50.942;4.016;2023-04-23T07:51:42;2.00;;;0.90;;
52272;SDS011;38227;50.942;4.016;2023-04-23T07:54:16;3.40;;;1.25;;
52272;SDS011;38227;50.942;4.016;2023-04-23T07:56:48;1.70;;;0.80;;
52272;SDS011;38227;50.942;4.016;2023-04-23T07:59:26;2.15;;;0.90;;
52272;SDS011;38227;50.942;4.016;2023-04-23T08:01:56;1.33;;;0.85;;
52272;SDS011;38227;50.942;4.016;2023-04-23T08:04:33;2.95;;;1.35;;
52272;SDS011;38227;50.942;4.016;2023-04-23T08:07:02;2.78;;;1.17;;
52272;SDS011;38227;50.942;4.016;2023-04-23T08:09:34;2.90;;;1.10;;
52272;SDS011;38227;50.942;4.016;2023-04-23T08:12:03;2.12;;;1.00;;
52272;SDS011;38227;50.942;4.016;2023-04-23T08:14:33;3.47;;;1.25;;
52272;SDS011;38227;50.942;4.016;2023-04-23T08:17:03;1.23;;;1.00;;
52272;SDS011;38227;50.942;4.016;2023-04-23T08:19:40;1.12;;;0.93;;
52272;SDS011;38227;50.942;4.016;2023-04-23T08:22:09;2.72;;;1.00;;
52272;SDS011;38227;50.942;4.016;2023-04-23T08:24:37;3.05;;;1.00;;
52272;SDS011;38227;50.942;4.016;2023-04-23T08:27:06;1.08;;;0.85;;
52272;SDS011;38227;50.942;4.016;2023-04-23T08:29:36;2.53;;;0.80;;
52272;SDS011;38227;50.942;4.016;2023-04-23T08:32:07;4.00;;;1.33;;
52272;SDS011;38227;50.942;4.016;2023-04-23T08:34:37;2.95;;;1.00;;
52272;SDS011;38227;50.942;4.016;2023-04-23T08:37:15;1.95;;;1.10;;
52272;SDS011;38227;50.942;4.016;2023-04-23T08:39:45;2.35;;;0.75;;
52272;SDS011;38227;50.942;4.016;2023-04-23T08:42:41;0.68;;;0.68;;
52272;SDS011;38227;50.942;4.016;2023-04-23T08:45:20;1.62;;;1.02;;
52272;SDS011;38227;50.942;4.016;2023-04-23T08:47:52;1.67;;;0.90;;
52272;SDS011;38227;50.942;4.016;2023-04-23T08:50:28;3.00;;;1.17;;
52272;SDS011;38227;50.942;4.016;2023-04-23T08:52:56;1.17;;;0.70;;
52272;SDS011;38227;50.942;4.016;2023-04-23T08:55:27;4.50;;;1.27;;
52272;SDS011;38227;50.942;4.016;2023-04-23T08:58:04;3.75;;;0.93;;
52272;SDS011;38227;50.942;4.016;2023-04-23T09:00:32;1.98;;;0.73;;
52272;SDS011;38227;50.942;4.016;2023-04-23T09:03:02;1.23;;;0.70;;
52272;SDS011;38227;50.942;4.016;2023-04-23T09:05:29;1.15;;;0.62;;
52272;SDS011;38227;50.942;4.016;2023-04-23T09:07:59;2.10;;;1.05;;
52272;SDS011;38227;50.942;4.016;2023-04-23T09:10:30;0.93;;;0.65;;
52272;SDS011;38227;50.942;4.016;2023-04-23T09:13:02;1.37;;;0.68;;
52272;SDS011;38227;50.942;4.016;2023-04-23T09:15:41;3.37;;;0.80;;
52272;SDS011;38227;50.942;4.016;2023-04-23T09:18:12;1.75;;;0.80;;
52272;SDS011;38227;50.942;4.016;2023-04-23T09:20:42;1.12;;;0.80;;
52272;SDS011;38227;50.942;4.016;2023-04-23T09:23:12;1.52;;;0.90;;
52272;SDS011;38227;50.942;4.016;2023-04-23T09:25:42;1.20;;;0.80;;
52272;SDS011;38227;50.942;4.016;2023-04-23T09:28:13;2.45;;;0.85;;
52272;SDS011;38227;50.942;4.016;2023-04-23T09:30:44;1.20;;;0.50;;
52272;SDS011;38227;50.942;4.016;2023-04-23T09:33:15;1.12;;;0.88;;
52272;SDS011;38227;50.942;4.016;2023-04-23T09:35:45;0.55;;;0.50;;
52272;SDS011;38227;50.942;4.016;2023-04-23T09:38:22;1.95;;;1.00;;
52272;SDS011;38227;50.942;4.016;2023-04-23T09:40:52;2.10;;;0.77;;
52272;SDS011;38227;50.942;4.016;2023-04-23T09:43:51;2.40;;;1.10;;
52272;SDS011;38227;50.942;4.016;2023-04-23T09:46:32;1.65;;;0.57;;
52272;SDS011;38227;50.942;4.016;2023-04-23T09:49:02;1.62;;;0.68;;
52272;SDS011;38227;50.942;4.016;2023-04-23T09:51:36;0.80;;;0.60;;
52272;SDS011;38227;50.942;4.016;2023-04-23T09:54:13;0.77;;;0.68;;
52272;SDS011;38227;50.942;4.016;2023-04-23T09:56:49;1.83;;;0.90;;
52272;SDS011;38227;50.942;4.016;2023-04-23T09:59:24;2.58;;;0.70;;
52272;SDS011;38227;50.942;4.016;2023-04-23T10:01:54;0.88;;;0.40;;
52272;SDS011;38227;50.942;4.016;2023-04-23T10:04:24;2.85;;;0.82;;
52272;SDS011;38227;50.942;4.016;2023-04-23T10:07:05;2.62;;;0.60;;
52272;SDS011;38227;50.942;4.016;2023-04-23T10:09:39;1.70;;;0.50;;
52272;SDS011;38227;50.942;4.016;2023-04-23T10:12:08;2.95;;;0.68;;
52272;SDS011;38227;50.942;4.016;2023-04-23T10:14:38;3.33;;;0.50;;
52272;SDS011;38227;50.942;4.016;2023-04-23T10:17:17;1.35;;;0.80;;
52272;SDS011;38227;50.942;4.016;2023-04-23T10:19:47;0.90;;;0.50;;
52272;SDS011;38227;50.942;4.016;2023-04-23T10:22:16;1.73;;;0.77;;
52272;SDS011;38227;50.942;4.016;2023-04-23T10:24:51;1.50;;;0.37;;
52272;SDS011;38227;50.942;4.016;2023-04-23T10:27:25;1.10;;;0.73;;
52272;SDS011;38227;50.942;4.016;2023-04-23T10:29:57;2.47;;;0.57;;
52272;SDS011;38227;50.942;4.016;2023-04-23T10:32:27;1.00;;;0.50;;
52272;SDS011;38227;50.942;4.016;2023-04-23T10:34:55;2.40;;;0.70;;
52272;SDS011;38227;50.942;4.016;2023-04-23T10:37:26;1.52;;;0.47;;
52272;SDS011;38227;50.942;4.016;2023-04-23T10:39:58;2.80;;;1.02;;
52272;SDS011;38227;50.942;4.016;2023-04-23T10:42:37;2.22;;;0.50;;
52272;SDS011;38227;50.942;4.016;2023-04-23T10:45:16;3.72;;;0.60;;
52272;SDS011;38227;50.942;4.016;2023-04-23T10:47:45;0.35;;;0.35;;
52272;SDS011;38227;50.942;4.016;2023-04-23T10:50:24;0.55;;;0.40;;
52272;SDS011;38227;50.942;4.016;2023-04-23T10:52:56;1.45;;;0.50;;
52272;SDS011;38227;50.942;4.016;2023-04-23T10:55:28;0.82;;;0.50;;
52272;SDS011;38227;50.942;4.016;2023-04-23T11:00:49;3.22;;;1.00;;
52272;SDS011;38227;50.942;4.016;2023-04-23T11:03:36;1.75;;;0.50;;
52272;SDS011;38227;50.942;4.016;2023-04-23T11:06:07;1.95;;;0.68;;
52272;SDS011;38227;50.942;4.016;2023-04-23T11:08:50;0.65;;;0.35;;
52272;SDS011;38227;50.942;4.016;2023-04-23T11:11:37;2.92;;;0.75;;
52272;SDS011;38227;50.942;4.016;2023-04-23T11:14:11;3.35;;;0.77;;
52272;SDS011;38227;50.942;4.016;2023-04-23T11:16:41;1.70;;;0.43;;
52272;SDS011;38227;50.942;4.016;2023-04-23T11:19:11;1.10;;;0.40;;
52272;SDS011;38227;50.942;4.016;2023-04-23T11:21:58;0.85;;;0.50;;
52272;SDS011;38227;50.942;4.016;2023-04-23T11:24:34;2.08;;;0.50;;
52272;SDS011;38227;50.942;4.016;2023-04-23T11:27:08;2.40;;;0.82;;
52272;SDS011;38227;50.942;4.016;2023-04-23T11:29:41;1.30;;;0.50;;
52272;SDS011;38227;50.942;4.016;2023-04-23T11:32:11;1.02;;;0.60;;
52272;SDS011;38227;50.942;4.016;2023-04-23T11:34:43;1.70;;;0.70;;
52272;SDS011;38227;50.942;4.016;2023-04-23T11:37:13;2.47;;;0.60;;
52272;SDS011;38227;50.942;4.016;2023-04-23T11:39:45;1.30;;;0.50;;
52272;SDS011;38227;50.942;4.016;2023-04-23T11:42:16;0.90;;;0.50;;
52272;SDS011;38227;50.942;4.016;2023-04-23T11:44:47;1.67;;;0.50;;
52272;SDS011;38227;50.942;4.016;2023-04-23T11:47:19;3.72;;;0.50;;
52272;SDS011;38227;50.942;4.016;2023-04-23T11:49:49;1.77;;;0.62;;
52272;SDS011;38227;50.942;4.016;2023-04-23T11:52:20;0.85;;;0.50;;
52272;SDS011;38227;50.942;4.016;2023-04-23T11:54:49;0.40;;;0.40;;
52272;SDS011;38227;50.942;4.016;2023-04-23T11:57:21;0.68;;;0.50;;
52272;SDS011;38227;50.942;4.016;2023-04-23T11:59:52;1.05;;;0.60;;
52272;SDS011;38227;50.942;4.016;2023-04-23T12:02:24;0.40;;;0.40;;
52272;SDS011;38227;50.942;4.016;2023-04-23T12:04:54;1.02;;;0.65;;
52272;SDS011;38227;50.942;4.016;2023-04-23T12:07:32;3.33;;;0.80;;
52272;SDS011;38227;50.942;4.016;2023-04-23T12:10:03;1.35;;;0.93;;
52272;SDS011;38227;50.942;4.016;2023-04-23T12:12:34;0.73;;;0.40;;
52272;SDS011;38227;50.942;4.016;2023-04-23T12:15:04;1.15;;;0.60;;
52272;SDS011;38227;50.942;4.016;2023-04-23T12:17:39;1.80;;;0.60;;
52272;SDS011;38227;50.942;4.016;2023-04-23T12:20:14;1.60;;;0.57;;
52272;SDS011;38227;50.942;4.016;2023-04-23T12:22:45;1.45;;;0.50;;
52272;SDS011;38227;50.942;4.016;2023-04-23T12:25:15;0.60;;;0.40;;
52272;SDS011;38227;50.942;4.016;2023-04-23T12:27:52;1.42;;;0.60;;
52272;SDS011;38227;50.942;4.016;2023-04-23T12:30:29;1.23;;;0.68;;
52272;SDS011;38227;50.942;4.016;2023-04-23T12:33:00;1.85;;;0.70;;
52272;SDS011;38227;50.942;4.016;2023-04-23T12:35:40;1.70;;;0.75;;
52272;SDS011;38227;50.942;4.016;2023-04-23T12:38:24;2.50;;;0.80;;
52272;SDS011;38227;50.942;4.016;2023-04-23T12:41:00;1.75;;;0.77;;
52272;SDS011;38227;50.942;4.016;2023-04-23T12:43:29;0.77;;;0.50;;
52272;SDS011;38227;50.942;4.016;2023-04-23T12:46:18;1.30;;;0.90;;
52272;SDS011;38227;50.942;4.016;2023-04-23T12:48:47;1.30;;;0.80;;
52272;SDS011;38227;50.942;4.016;2023-04-23T12:51:18;1.40;;;0.80;;
52272;SDS011;38227;50.942;4.016;2023-04-23T12:53:47;1.00;;;0.70;;
52272;SDS011;38227;50.942;4.016;2023-04-23T12:56:25;1.35;;;0.80;;
52272;SDS011;38227;50.942;4.016;2023-04-23T12:58:55;1.35;;;0.50;;
52272;SDS011;38227;50.942;4.016;2023-04-23T13:01:31;1.55;;;0.57;;
52272;SDS011;38227;50.942;4.016;2023-04-23T13:04:04;1.67;;;0.90;;
52272;SDS011;38227;50.942;4.016;2023-04-23T13:06:34;1.17;;;0.90;;
52272;SDS011;38227;50.942;4.016;2023-04-23T13:09:04;1.33;;;0.73;;
52272;SDS011;38227;50.942;4.016;2023-04-23T13:11:41;1.67;;;0.98;;
52272;SDS011;38227;50.942;4.016;2023-04-23T13:14:14;0.68;;;0.60;;
52272;SDS011;38227;50.942;4.016;2023-04-23T13:16:45;1.58;;;0.80;;
52272;SDS011;38227;50.942;4.016;2023-04-23T13:19:14;1.60;;;1.50;;
52272;SDS011;38227;50.942;4.016;2023-04-23T13:21:45;2.50;;;1.00;;
52272;SDS011;38227;50.942;4.016;2023-04-23T13:24:24;1.85;;;0.90;;
52272;SDS011;38227;50.942;4.016;2023-04-23T13:26:57;3.28;;;0.98;;
52272;SDS011;38227;50.942;4.016;2023-04-23T13:29:27;4.03;;;1.10;;
52272;SDS011;38227;50.942;4.016;2023-04-23T13:31:57;1.87;;;0.85;;
52272;SDS011;38227;50.942;4.016;2023-04-23T13:34:29;1.95;;;1.00;;
52272;SDS011;38227;50.942;4.016;2023-04-23T13:37:06;2.50;;;1.00;;
52272;SDS011;38227;50.942;4.016;2023-04-23T13:39:37;1.98;;;0.98;;
52272;SDS011;38227;50.942;4.016;2023-04-23T13:42:17;1.23;;;0.90;;
52272;SDS011;38227;50.942;4.016;2023-04-23T13:44:47;1.90;;;0.98;;
52272;SDS011;38227;50.942;4.016;2023-04-23T13:47:18;1.83;;;1.00;;
52272;SDS011;38227;50.942;4.016;2023-04-23T13:49:48;2.90;;;0.90;;
52272;SDS011;38227;50.942;4.016;2023-04-23T13:52:19;1.42;;;0.90;;
52272;SDS011;38227;50.942;4.016;2023-04-23T13:54:56;2.17;;;0.80;;
52272;SDS011;38227;50.942;4.016;2023-04-23T13:57:34;1.42;;;0.65;;
52272;SDS011;38227;50.942;4.016;2023-04-23T14:00:04;1.33;;;0.82;;
52272;SDS011;38227;50.942;4.016;2023-04-23T14:02:33;2.50;;;0.93;;
52272;SDS011;38227;50.942;4.016;2023-04-23T14:05:04;1.20;;;0.80;;
52272;SDS011;38227;50.942;4.016;2023-04-23T14:07:34;1.70;;;1.15;;
52272;SDS011;38227;50.942;4.016;2023-04-23T14:10:04;2.75;;;0.82;;
52272;SDS011;38227;50.942;4.016;2023-04-23T14:12:34;1.98;;;1.12;;
52272;SDS011;38227;50.942;4.016;2023-04-23T14:15:04;1.60;;;1.00;;
52272;SDS011;38227;50.942;4.016;2023-04-23T14:17:36;2.25;;;1.10;;
52272;SDS011;38227;50.942;4.016;2023-04-23T14:20:08;1.05;;;0.80;;
52272;SDS011;38227;50.942;4.016;2023-04-23T14:22:39;2.12;;;1.10;;
52272;SDS011;38227;50.942;4.016;2023-04-23T14:25:09;2.40;;;1.10;;
52272;SDS011;38227;50.942;4.016;2023-04-23T14:27:50;0.90;;;0.73;;
52272;SDS011;38227;50.942;4.016;2023-04-23T14:30:29;2.45;;;1.20;;
52272;SDS011;38227;50.942;4.016;2023-04-23T14:33:15;1.70;;;1.00;;
52272;SDS011;38227;50.942;4.016;2023-04-23T14:35:47;0.95;;;0.77;;
52272;SDS011;38227;50.942;4.016;2023-04-23T14:38:20;1.37;;;0.82;;
52272;SDS011;38227;50.942;4.016;2023-04-23T14:40:53;2.00;;;0.98;;
52272;SDS011;38227;50.942;4.016;2023-04-23T14:43:22;1.35;;;1.10;;
52272;SDS011;38227;50.942;4.016;2023-04-23T14:45:52;1.62;;;0.90;;
52272;SDS011;38227;50.942;4.016;2023-04-23T14:48:30;1.27;;;0.70;;
52272;SDS011;38227;50.942;4.016;2023-04-23T14:51:00;2.00;;;0.98;;
52272;SDS011;38227;50.942;4.016;2023-04-23T14:53:30;1.20;;;0.90;;
52272;SDS011;38227;50.942;4.016;2023-04-23T14:56:00;1.35;;;0.90;;
52272;SDS011;38227;50.942;4.016;2023-04-23T14:58:37;1.87;;;1.00;;
52272;SDS011;38227;50.942;4.016;2023-04-23T15:01:07;2.10;;;1.02;;
52272;SDS011;38227;50.942;4.016;2023-04-23T15:03:36;1.75;;;0.90;;
52272;SDS011;38227;50.942;4.016;2023-04-23T15:06:06;1.02;;;0.90;;
52272;SDS011;38227;50.942;4.016;2023-04-23T15:08:36;1.50;;;1.00;;
52272;SDS011;38227;50.942;4.016;2023-04-23T15:11:05;0.85;;;0.85;;
52272;SDS011;38227;50.942;4.016;2023-04-23T15:16:35;0.73;;;0.70;;